Back to Top

Language: 

My Weather Underground Personal Weather Station Historical Data with Graphs...

Delerius Weather Station Historical Data
Daily Summary for March 8, 2018 Units:  Both    English   Metric
« Previous Day
Next Day »
Daily Weekly Monthly Yearly Custom
  High: Low: Average:
Temperature: 46.0 °F /  7.8 °C 32.7 °F /  0.4 °C 37.9 °F /  3.3 °C
Dew Point: 40.3 °F /  4.6 °C 30.7 °F /  -0.7 °C 34.4 °F /  1.3 °C
Humidity: 97 % 67 % 88 %
Wind Speed: 18.0 mph /  29 km/h - 4.6 mph /  7.4 km/h
Wind Gust: 27.0 mph /  43.5 km/h - -
Wind:- - WSW
Pressure: 29.53 in /  999.9 hPa 29.16 in /  987.4 hPa -
Precipitation: 0.27 in /  6.86 mm    
Historical Graphs
 
 
Tabular Data for March 8, 2018
Time Temperature Dew Point Pressure Wind Wind Speed Wind Gust Humidity Rainfall Rate (Hourly) solar Conditions
00:00 34.9 °F /  1.6 °C 32.2 °F /  0.1 °C 29.34 in /  993.5 hPa SSW 3.0 mph /  4.8 km/h 6.0 mph /  9.7 km/h 90 % 0.00 in /  0 mm 0 W/m2
00:05 35.2 °F /  1.8 °C 32.6 °F /  0.3 °C 29.33 in /  993.1 hPa SSW 2.0 mph /  3.2 km/h 5.0 mph /  8 km/h 90 % 0.00 in /  0 mm 0 W/m2
00:10 35.2 °F /  1.8 °C 32.3 °F /  0.2 °C 29.33 in /  993.1 hPa SSW 1.0 mph /  1.6 km/h 4.0 mph /  6.4 km/h 89 % 0.00 in /  0 mm 0 W/m2
00:15 35.2 °F /  1.8 °C 32.3 °F /  0.2 °C 29.33 in /  993.1 hPa SSW 2.0 mph /  3.2 km/h 4.0 mph /  6.4 km/h 89 % 0.00 in /  0 mm 0 W/m2
00:20 35.1 °F /  1.7 °C 31.9 °F /  -0.1 °C 29.33 in /  993.1 hPa South 2.0 mph /  3.2 km/h 4.0 mph /  6.4 km/h 88 % 0.00 in /  0 mm 0 W/m2
00:25 34.5 °F /  1.4 °C 31.0 °F /  -0.6 °C 29.33 in /  993.1 hPa SE 3.0 mph /  4.8 km/h 6.0 mph /  9.7 km/h 87 % 0.00 in /  0 mm 0 W/m2
00:30 34.2 °F /  1.2 °C 31.0 °F /  -0.6 °C 29.33 in /  993.1 hPa SE 3.0 mph /  4.8 km/h 6.0 mph /  9.7 km/h 88 % 0.00 in /  0 mm 0 W/m2
00:35 34.2 °F /  1.2 °C 31.3 °F /  -0.4 °C 29.33 in /  993.1 hPa SSE 2.0 mph /  3.2 km/h 5.0 mph /  8 km/h 89 % 0.00 in /  0 mm 0 W/m2
00:40 34.2 °F /  1.2 °C 31.3 °F /  -0.4 °C 29.33 in /  993.1 hPa SSE 3.0 mph /  4.8 km/h 5.0 mph /  8 km/h 89 % 0.00 in /  0 mm 0 W/m2
00:45 34.2 °F /  1.2 °C 31.3 °F /  -0.4 °C 29.33 in /  993.1 hPa SSE 3.0 mph /  4.8 km/h 7.0 mph /  11.3 km/h 89 % 0.00 in /  0 mm 0 W/m2
00:50 34.2 °F /  1.2 °C 31.5 °F /  -0.3 °C 29.33 in /  993.1 hPa South 2.0 mph /  3.2 km/h 4.0 mph /  6.4 km/h 90 % 0.00 in /  0 mm 0 W/m2
00:55 34.0 °F /  1.1 °C 31.4 °F /  -0.3 °C 29.33 in /  993.1 hPa South 2.0 mph /  3.2 km/h 4.0 mph /  6.4 km/h 90 % 0.00 in /  0 mm 0 W/m2
01:00 34.0 °F /  1.1 °C 31.4 °F /  -0.3 °C 29.32 in /  992.8 hPa South 3.0 mph /  4.8 km/h 5.0 mph /  8 km/h 90 % 0.00 in /  0 mm 0 W/m2
01:05 34.0 °F /  1.1 °C 31.4 °F /  -0.3 °C 29.32 in /  992.8 hPa SSW 4.0 mph /  6.4 km/h 6.0 mph /  9.7 km/h 90 % 0.00 in /  0 mm 0 W/m2
01:10 34.2 °F /  1.2 °C 31.8 °F /  -0.1 °C 29.31 in /  992.4 hPa SSW 2.0 mph /  3.2 km/h 5.0 mph /  8 km/h 91 % 0.00 in /  0 mm 0 W/m2
01:15 34.3 °F /  1.3 °C 32.0 °F /  0 °C 29.31 in /  992.4 hPa Calm   3.0 mph /  4.8 km/h 91 % 0.00 in /  0 mm 0 W/m2
01:20 34.2 °F /  1.2 °C 31.5 °F /  -0.3 °C 29.30 in /  992.1 hPa Calm   1.0 mph /  1.6 km/h 90 % 0.00 in /  0 mm 0 W/m2
01:25 34.2 °F /  1.2 °C 31.5 °F /  -0.3 °C 29.30 in /  992.1 hPa Calm   1.0 mph /  1.6 km/h 90 % 0.00 in /  0 mm 0 W/m2
01:30 33.8 °F /  1 °C 31.2 °F /  -0.4 °C 29.30 in /  992.1 hPa SSW 1.0 mph /  1.6 km/h 4.0 mph /  6.4 km/h 90 % 0.00 in /  0 mm 0 W/m2
01:35 33.6 °F /  0.9 °C 31.0 °F /  -0.6 °C 29.30 in /  992.1 hPa SE 4.0 mph /  6.4 km/h 5.0 mph /  8 km/h 90 % 0.00 in /  0 mm 0 W/m2
01:40 33.4 °F /  0.8 °C 30.8 °F /  -0.7 °C 29.30 in /  992.1 hPa SE 1.0 mph /  1.6 km/h 2.0 mph /  3.2 km/h 90 % 0.00 in /  0 mm 0 W/m2
01:45 33.4 °F /  0.8 °C 31.1 °F /  -0.5 °C 29.30 in /  992.1 hPa SE 1.0 mph /  1.6 km/h 3.0 mph /  4.8 km/h 91 % 0.00 in /  0 mm 0 W/m2
01:50 33.6 °F /  0.9 °C 31.3 °F /  -0.4 °C 29.30 in /  992.1 hPa SE 1.0 mph /  1.6 km/h 4.0 mph /  6.4 km/h 91 % 0.00 in /  0 mm 0 W/m2
01:55 33.6 °F /  0.9 °C 31.3 °F /  -0.4 °C 29.30 in /  992.1 hPa SE 1.0 mph /  1.6 km/h 5.0 mph /  8 km/h 91 % 0.00 in /  0 mm 0 W/m2
02:00 33.6 °F /  0.9 °C 31.3 °F /  -0.4 °C 29.30 in /  992.1 hPa Calm   1.0 mph /  1.6 km/h 91 % 0.00 in /  0 mm 0 W/m2
02:05 33.4 °F /  0.8 °C 31.1 °F /  -0.5 °C 29.30 in /  992.1 hPa SE 1.0 mph /  1.6 km/h 2.0 mph /  3.2 km/h 91 % 0.00 in /  0 mm 0 W/m2
02:10 33.3 °F /  0.7 °C 30.9 °F /  -0.6 °C 29.29 in /  991.8 hPa Calm   2.0 mph /  3.2 km/h 91 % 0.00 in /  0 mm 0 W/m2
02:15 33.3 °F /  0.7 °C 30.9 °F /  -0.6 °C 29.29 in /  991.8 hPa Calm   2.0 mph /  3.2 km/h 91 % 0.00 in /  0 mm 0 W/m2
02:20 33.3 °F /  0.7 °C 30.9 °F /  -0.6 °C 29.29 in /  991.8 hPa SE 1.0 mph /  1.6 km/h 3.0 mph /  4.8 km/h 91 % 0.00 in /  0 mm 0 W/m2
02:25 33.1 °F /  0.6 °C 31.0 °F /  -0.6 °C 29.29 in /  991.8 hPa SE 1.0 mph /  1.6 km/h 3.0 mph /  4.8 km/h 92 % 0.00 in /  0 mm 0 W/m2
02:30 33.1 °F /  0.6 °C 31.0 °F /  -0.6 °C 29.28 in /  991.4 hPa Calm   1.0 mph /  1.6 km/h 92 % 0.00 in /  0 mm 0 W/m2
02:35 33.3 °F /  0.7 °C 31.2 °F /  -0.4 °C 29.28 in /  991.4 hPa Calm     92 % 0.00 in /  0 mm 0 W/m2
02:40 33.1 °F /  0.6 °C 31.0 °F /  -0.6 °C 29.28 in /  991.4 hPa ESE 1.0 mph /  1.6 km/h 2.0 mph /  3.2 km/h 92 % 0.00 in /  0 mm 0 W/m2
02:45 33.1 °F /  0.6 °C 31.0 °F /  -0.6 °C 29.28 in /  991.4 hPa Calm   2.0 mph /  3.2 km/h 92 % 0.00 in /  0 mm 0 W/m2
02:50 33.1 °F /  0.6 °C 31.0 °F /  -0.6 °C 29.27 in /  991.1 hPa ESE 1.0 mph /  1.6 km/h 4.0 mph /  6.4 km/h 92 % 0.00 in /  0 mm 0 W/m2
02:55 32.7 °F /  0.4 °C 30.7 °F /  -0.7 °C 29.27 in /  991.1 hPa ESE 1.0 mph /  1.6 km/h 2.0 mph /  3.2 km/h 92 % 0.00 in /  0 mm 0 W/m2
03:00 32.7 °F /  0.4 °C 30.7 °F /  -0.7 °C 29.26 in /  990.7 hPa Calm   1.0 mph /  1.6 km/h 92 % 0.00 in /  0 mm 0 W/m2
03:05 32.7 °F /  0.4 °C 30.7 °F /  -0.7 °C 29.26 in /  990.7 hPa Calm   1.0 mph /  1.6 km/h 92 % 0.00 in /  0 mm 0 W/m2
03:10 32.7 °F /  0.4 °C 30.7 °F /  -0.7 °C 29.26 in /  990.7 hPa Calm   1.0 mph /  1.6 km/h 92 % 0.00 in /  0 mm 0 W/m2
03:15 32.7 °F /  0.4 °C 30.9 °F /  -0.6 °C 29.25 in /  990.4 hPa East 1.0 mph /  1.6 km/h 4.0 mph /  6.4 km/h 93 % 0.00 in /  0 mm 0 W/m2
03:20 33.1 °F /  0.6 °C 31.3 °F /  -0.4 °C 29.25 in /  990.4 hPa ENE 1.0 mph /  1.6 km/h 3.0 mph /  4.8 km/h 93 % 0.00 in /  0 mm 0 W/m2
03:25 33.3 °F /  0.7 °C 31.5 °F /  -0.3 °C 29.25 in /  990.4 hPa ENE 2.0 mph /  3.2 km/h 4.0 mph /  6.4 km/h 93 % 0.00 in /  0 mm 0 W/m2
03:30 33.4 °F /  0.8 °C 31.6 °F /  -0.2 °C 29.25 in /  990.4 hPa ENE 1.0 mph /  1.6 km/h 5.0 mph /  8 km/h 93 % 0.00 in /  0 mm 0 W/m2
03:35 33.6 °F /  0.9 °C 31.8 °F /  -0.1 °C 29.24 in /  990.1 hPa ENE 2.0 mph /  3.2 km/h 5.0 mph /  8 km/h 93 % 0.00 in /  0 mm 0 W/m2
03:40 33.8 °F /  1 °C 32.0 °F /  0 °C 29.24 in /  990.1 hPa ENE 1.0 mph /  1.6 km/h 2.0 mph /  3.2 km/h 93 % 0.00 in /  0 mm 0 W/m2
03:45 33.6 °F /  0.9 °C 31.5 °F /  -0.3 °C 29.24 in /  990.1 hPa Calm     92 % 0.00 in /  0 mm 0 W/m2
03:50 33.4 °F /  0.8 °C 31.4 °F /  -0.3 °C 29.24 in /  990.1 hPa Calm   2.0 mph /  3.2 km/h 92 % 0.00 in /  0 mm 0 W/m2
03:55 33.4 °F /  0.8 °C 31.6 °F /  -0.2 °C 29.23 in /  989.7 hPa Calm   1.0 mph /  1.6 km/h 93 % 0.00 in /  0 mm 0 W/m2
04:00 33.6 °F /  0.9 °C 31.8 °F /  -0.1 °C 29.23 in /  989.7 hPa ENE 1.0 mph /  1.6 km/h 4.0 mph /  6.4 km/h 93 % 0.00 in /  0 mm 0 W/m2
04:05 34.0 °F /  1.1 °C 32.2 °F /  0.1 °C 29.23 in /  989.7 hPa ENE 2.0 mph /  3.2 km/h 4.0 mph /  6.4 km/h 93 % 0.00 in /  0 mm 0 W/m2
04:10 34.2 °F /  1.2 °C 32.3 °F /  0.2 °C 29.23 in /  989.7 hPa ENE 1.0 mph /  1.6 km/h 2.0 mph /  3.2 km/h 93 % 0.00 in /  0 mm 0 W/m2
04:15 34.3 °F /  1.3 °C 32.8 °F /  0.4 °C 29.22 in /  989.4 hPa ENE 1.0 mph /  1.6 km/h 4.0 mph /  6.4 km/h 94 % 0.00 in /  0 mm 0 W/m2
04:20 34.5 °F /  1.4 °C 32.7 °F /  0.4 °C 29.22 in /  989.4 hPa ENE 1.0 mph /  1.6 km/h 2.0 mph /  3.2 km/h 93 % 0.00 in /  0 mm 0 W/m2
04:25 34.5 °F /  1.4 °C 32.7 °F /  0.4 °C 29.22 in /  989.4 hPa East 3.0 mph /  4.8 km/h 6.0 mph /  9.7 km/h 93 % 0.00 in /  0 mm 0 W/m2
04:30 34.5 °F /  1.4 °C 32.7 °F /  0.4 °C 29.22 in /  989.4 hPa East 1.0 mph /  1.6 km/h 4.0 mph /  6.4 km/h 93 % 0.00 in /  0 mm 0 W/m2
04:35 34.7 °F /  1.5 °C 32.9 °F /  0.5 °C 29.21 in /  989.1 hPa East 1.0 mph /  1.6 km/h 2.0 mph /  3.2 km/h 93 % 0.00 in /  0 mm 0 W/m2
04:40 34.7 °F /  1.5 °C 32.9 °F /  0.5 °C 29.21 in /  989.1 hPa Calm   4.0 mph /  6.4 km/h 93 % 0.00 in /  0 mm 0 W/m2
04:45 34.7 °F /  1.5 °C 32.9 °F /  0.5 °C 29.21 in /  989.1 hPa ENE 1.0 mph /  1.6 km/h 2.0 mph /  3.2 km/h 93 % 0.00 in /  0 mm 0 W/m2
04:50 34.7 °F /  1.5 °C 32.9 °F /  0.5 °C 29.21 in /  989.1 hPa Calm   3.0 mph /  4.8 km/h 93 % 0.01 in /  0.25 mm 0 W/m2
04:55 34.5 °F /  1.4 °C 32.7 °F /  0.4 °C 29.20 in /  988.7 hPa ENE 1.0 mph /  1.6 km/h 4.0 mph /  6.4 km/h 93 % 0.01 in /  0.25 mm 0 W/m2
05:00 34.5 °F /  1.4 °C 32.7 °F /  0.4 °C 29.20 in /  988.7 hPa Calm   2.0 mph /  3.2 km/h 93 % 0.01 in /  0.25 mm 0 W/m2
05:05 34.5 °F /  1.4 °C 32.7 °F /  0.4 °C 29.20 in /  988.7 hPa ENE 1.0 mph /  1.6 km/h 2.0 mph /  3.2 km/h 93 % 0.01 in /  0.25 mm 0 W/m2
05:10 34.3 °F /  1.3 °C 32.5 °F /  0.3 °C 29.20 in /  988.7 hPa East 2.0 mph /  3.2 km/h 4.0 mph /  6.4 km/h 93 % 0.02 in /  0.51 mm 0 W/m2
05:15 34.2 °F /  1.2 °C 32.3 °F /  0.2 °C 29.20 in /  988.7 hPa ENE 1.0 mph /  1.6 km/h 3.0 mph /  4.8 km/h 93 % 0.02 in /  0.51 mm 0 W/m2
05:20 34.0 °F /  1.1 °C 32.2 °F /  0.1 °C 29.19 in /  988.4 hPa ENE 1.0 mph /  1.6 km/h 4.0 mph /  6.4 km/h 93 % 0.02 in /  0.51 mm 0 W/m2
05:25 33.8 °F /  1 °C 32.0 °F /  0 °C 29.19 in /  988.4 hPa ENE 1.0 mph /  1.6 km/h 2.0 mph /  3.2 km/h 93 % 0.02 in /  0.51 mm 0 W/m2
05:30 33.6 °F /  0.9 °C 32.1 °F /  0.1 °C 29.19 in /  988.4 hPa ENE 1.0 mph /  1.6 km/h 3.0 mph /  4.8 km/h 94 % 0.02 in /  0.51 mm 0 W/m2
05:36 33.6 °F /  0.9 °C 32.1 °F /  0.1 °C 29.19 in /  988.4 hPa ENE 1.0 mph /  1.6 km/h 4.0 mph /  6.4 km/h 94 % 0.02 in /  0.51 mm 0 W/m2
05:41 33.4 °F /  0.8 °C 31.9 °F /  -0.1 °C 29.19 in /  988.4 hPa ENE 1.0 mph /  1.6 km/h 3.0 mph /  4.8 km/h 94 % 0.02 in /  0.51 mm 0 W/m2
05:46 33.4 °F /  0.8 °C 31.9 °F /  -0.1 °C 29.18 in /  988 hPa ENE 1.0 mph /  1.6 km/h 4.0 mph /  6.4 km/h 94 % 0.02 in /  0.51 mm 0 W/m2
05:51 33.4 °F /  0.8 °C 31.9 °F /  -0.1 °C 29.18 in /  988 hPa ENE 1.0 mph /  1.6 km/h 4.0 mph /  6.4 km/h 94 % 0.01 in /  0.25 mm 0 W/m2
05:56 33.4 °F /  0.8 °C 31.9 °F /  -0.1 °C 29.18 in /  988 hPa Calm   1.0 mph /  1.6 km/h 94 % 0.01 in /  0.25 mm 0 W/m2
06:01 33.4 °F /  0.8 °C 31.9 °F /  -0.1 °C 29.18 in /  988 hPa ENE 1.0 mph /  1.6 km/h 3.0 mph /  4.8 km/h 94 % 0.01 in /  0.25 mm 0 W/m2
06:06 33.4 °F /  0.8 °C 31.9 °F /  -0.1 °C 29.17 in /  987.7 hPa ENE 1.0 mph /  1.6 km/h 2.0 mph /  3.2 km/h 94 % 0.01 in /  0.25 mm 0 W/m2
06:11 33.4 °F /  0.8 °C 32.2 °F /  0.1 °C 29.17 in /  987.7 hPa Calm   2.0 mph /  3.2 km/h 95 % 0.00 in /  0 mm 0 W/m2
06:16 33.4 °F /  0.8 °C 32.2 °F /  0.1 °C 29.17 in /  987.7 hPa Calm   2.0 mph /  3.2 km/h 95 % 0.00 in /  0 mm 0 W/m2
06:21 33.4 °F /  0.8 °C 32.2 °F /  0.1 °C 29.17 in /  987.7 hPa Calm   1.0 mph /  1.6 km/h 95 % 0.01 in /  0.25 mm 0 W/m2
06:26 33.4 °F /  0.8 °C 32.2 °F /  0.1 °C 29.17 in /  987.7 hPa Calm     95 % 0.01 in /  0.25 mm 0 W/m2
06:31 33.4 °F /  0.8 °C 32.2 °F /  0.1 °C 29.17 in /  987.7 hPa Calm     95 % 0.01 in /  0.25 mm 0 W/m2
06:36 33.4 °F /  0.8 °C 32.2 °F /  0.1 °C 29.17 in /  987.7 hPa Calm   1.0 mph /  1.6 km/h 95 % 0.02 in /  0.51 mm 0 W/m2
06:41 33.4 °F /  0.8 °C 32.2 °F /  0.1 °C 29.17 in /  987.7 hPa Calm     95 % 0.02 in /  0.51 mm 0 W/m2
06:46 33.4 °F /  0.8 °C 32.2 °F /  0.1 °C 29.17 in /  987.7 hPa Calm   1.0 mph /  1.6 km/h 95 % 0.02 in /  0.51 mm 0 W/m2
06:51 33.4 °F /  0.8 °C 32.2 °F /  0.1 °C 29.16 in /  987.4 hPa Calm   1.0 mph /  1.6 km/h 95 % 0.02 in /  0.51 mm 0 W/m2
06:56 33.4 °F /  0.8 °C 32.2 °F /  0.1 °C 29.16 in /  987.4 hPa ENE 2.0 mph /  3.2 km/h 5.0 mph /  8 km/h 95 % 0.02 in /  0.51 mm 5 W/m2
07:01 33.4 °F /  0.8 °C 32.2 °F /  0.1 °C 29.16 in /  987.4 hPa Calm     95 % 0.02 in /  0.51 mm 5 W/m2
07:06 33.4 °F /  0.8 °C 32.2 °F /  0.1 °C 29.16 in /  987.4 hPa Calm     95 % 0.03 in /  0.76 mm 7 W/m2
07:11 33.4 °F /  0.8 °C 32.2 °F /  0.1 °C 29.16 in /  987.4 hPa Calm     95 % 0.03 in /  0.76 mm 7 W/m2
07:16 33.4 °F /  0.8 °C 32.2 °F /  0.1 °C 29.16 in /  987.4 hPa Calm     95 % 0.04 in /  1.02 mm 7 W/m2
07:21 33.4 °F /  0.8 °C 32.2 °F /  0.1 °C 29.16 in /  987.4 hPa Calm   1.0 mph /  1.6 km/h 95 % 0.03 in /  0.76 mm 9 W/m2
07:26 33.4 °F /  0.8 °C 32.2 °F /  0.1 °C 29.16 in /  987.4 hPa Calm     95 % 0.03 in /  0.76 mm 11 W/m2
07:31 33.4 °F /  0.8 °C 32.2 °F /  0.1 °C 29.16 in /  987.4 hPa Calm   2.0 mph /  3.2 km/h 95 % 0.03 in /  0.76 mm 11 W/m2
07:36 33.4 °F /  0.8 °C 32.2 °F /  0.1 °C 29.16 in /  987.4 hPa Calm   1.0 mph /  1.6 km/h 95 % 0.03 in /  0.76 mm 12 W/m2
07:41 33.4 °F /  0.8 °C 32.2 °F /  0.1 °C 29.16 in /  987.4 hPa Calm     95 % 0.03 in /  0.76 mm 12 W/m2
07:46 33.4 °F /  0.8 °C 32.2 °F /  0.1 °C 29.16 in /  987.4 hPa Calm     95 % 0.02 in /  0.51 mm 16 W/m2
07:51 33.4 °F /  0.8 °C 32.2 °F /  0.1 °C 29.16 in /  987.4 hPa Calm     95 % 0.03 in /  0.76 mm 16 W/m2
07:56 33.6 °F /  0.9 °C 32.3 °F /  0.2 °C 29.16 in /  987.4 hPa Calm     95 % 0.03 in /  0.76 mm 16 W/m2
08:01 33.6 °F /  0.9 °C 32.3 °F /  0.2 °C 29.16 in /  987.4 hPa ENE 1.0 mph /  1.6 km/h 2.0 mph /  3.2 km/h 95 % 0.03 in /  0.76 mm 18 W/m2
08:06 33.6 °F /  0.9 °C 32.3 °F /  0.2 °C 29.16 in /  987.4 hPa Calm     95 % 0.03 in /  0.76 mm 21 W/m2
08:11 33.6 °F /  0.9 °C 32.3 °F /  0.2 °C 29.16 in /  987.4 hPa Calm     95 % 0.03 in /  0.76 mm 23 W/m2
08:16 33.6 °F /  0.9 °C 32.6 °F /  0.3 °C 29.16 in /  987.4 hPa Calm     96 % 0.03 in /  0.76 mm 25 W/m2
08:21 33.6 °F /  0.9 °C 32.6 °F /  0.3 °C 29.16 in /  987.4 hPa Calm     96 % 0.03 in /  0.76 mm 28 W/m2
08:26 33.6 °F /  0.9 °C 32.6 °F /  0.3 °C 29.16 in /  987.4 hPa NNW 1.0 mph /  1.6 km/h 5.0 mph /  8 km/h 96 % 0.03 in /  0.76 mm 32 W/m2
08:31 33.8 °F /  1 °C 32.8 °F /  0.4 °C 29.16 in /  987.4 hPa Calm   4.0 mph /  6.4 km/h 96 % 0.04 in /  1.02 mm 30 W/m2
08:36 34.0 °F /  1.1 °C 33.0 °F /  0.6 °C 29.16 in /  987.4 hPa NNW 2.0 mph /  3.2 km/h 5.0 mph /  8 km/h 96 % 0.03 in /  0.76 mm 28 W/m2
08:41 34.0 °F /  1.1 °C 33.0 °F /  0.6 °C 29.17 in /  987.7 hPa NNW 3.0 mph /  4.8 km/h 6.0 mph /  9.7 km/h 96 % 0.03 in /  0.76 mm 26 W/m2
08:46 34.0 °F /  1.1 °C 33.0 °F /  0.6 °C 29.17 in /  987.7 hPa NW 1.0 mph /  1.6 km/h 5.0 mph /  8 km/h 96 % 0.04 in /  1.02 mm 25 W/m2
08:51 33.8 °F /  1 °C 32.8 °F /  0.4 °C 29.16 in /  987.4 hPa NW 1.0 mph /  1.6 km/h 3.0 mph /  4.8 km/h 96 % 0.03 in /  0.76 mm 23 W/m2
08:56 33.8 °F /  1 °C 32.8 °F /  0.4 °C 29.16 in /  987.4 hPa NW 1.0 mph /  1.6 km/h 4.0 mph /  6.4 km/h 96 % 0.03 in /  0.76 mm 23 W/m2
09:01 33.6 °F /  0.9 °C 32.6 °F /  0.3 °C 29.16 in /  987.4 hPa WNW 3.0 mph /  4.8 km/h 6.0 mph /  9.7 km/h 96 % 0.03 in /  0.76 mm 23 W/m2
09:06 33.6 °F /  0.9 °C 32.6 °F /  0.3 °C 29.17 in /  987.7 hPa WNW 3.0 mph /  4.8 km/h 5.0 mph /  8 km/h 96 % 0.02 in /  0.51 mm 25 W/m2
09:11 33.6 °F /  0.9 °C 32.6 °F /  0.3 °C 29.17 in /  987.7 hPa NW 3.0 mph /  4.8 km/h 7.0 mph /  11.3 km/h 96 % 0.03 in /  0.76 mm 28 W/m2
09:16 33.6 °F /  0.9 °C 32.6 °F /  0.3 °C 29.17 in /  987.7 hPa NW 3.0 mph /  4.8 km/h 7.0 mph /  11.3 km/h 96 % 0.02 in /  0.51 mm 32 W/m2
09:21 33.6 °F /  0.9 °C 32.6 °F /  0.3 °C 29.17 in /  987.7 hPa NW 3.0 mph /  4.8 km/h 7.0 mph /  11.3 km/h 96 % 0.02 in /  0.51 mm 32 W/m2
09:26 33.6 °F /  0.9 °C 32.6 °F /  0.3 °C 29.17 in /  987.7 hPa NW 6.0 mph /  9.7 km/h 8.0 mph /  12.9 km/h 96 % 0.03 in /  0.76 mm 32 W/m2
09:31 33.6 °F /  0.9 °C 32.6 °F /  0.3 °C 29.17 in /  987.7 hPa NW 5.0 mph /  8 km/h 9.0 mph /  14.5 km/h 96 % 0.02 in /  0.51 mm 26 W/m2
09:36 33.6 °F /  0.9 °C 32.6 °F /  0.3 °C 29.18 in /  988 hPa NW 5.0 mph /  8 km/h 9.0 mph /  14.5 km/h 96 % 0.02 in /  0.51 mm 21 W/m2
09:42 33.6 °F /  0.9 °C 32.6 °F /  0.3 °C 29.18 in /  988 hPa WNW 6.0 mph /  9.7 km/h 10.0 mph /  16.1 km/h 96 % 0.02 in /  0.51 mm 25 W/m2
09:47 33.6 °F /  0.9 °C 32.6 °F /  0.3 °C 29.18 in /  988 hPa NW 5.0 mph /  8 km/h 8.0 mph /  12.9 km/h 96 % 0.02 in /  0.51 mm 28 W/m2
09:52 33.8 °F /  1 °C 32.8 °F /  0.4 °C 29.19 in /  988.4 hPa NW 4.0 mph /  6.4 km/h 8.0 mph /  12.9 km/h 96 % 0.02 in /  0.51 mm 40 W/m2
09:57 33.8 °F /  1 °C 32.8 °F /  0.4 °C 29.19 in /  988.4 hPa NW 4.0 mph /  6.4 km/h 8.0 mph /  12.9 km/h 96 % 0.03 in /  0.76 mm 76 W/m2
10:02 34.0 °F /  1.1 °C 33.0 °F /  0.6 °C 29.19 in /  988.4 hPa NW 3.0 mph /  4.8 km/h 7.0 mph /  11.3 km/h 96 % 0.03 in /  0.76 mm 70 W/m2
10:07 34.2 °F /  1.2 °C 33.1 °F /  0.6 °C 29.20 in /  988.7 hPa NW 5.0 mph /  8 km/h 9.0 mph /  14.5 km/h 96 % 0.03 in /  0.76 mm 102 W/m2
10:12 34.3 °F /  1.3 °C 33.3 °F /  0.7 °C 29.20 in /  988.7 hPa NW 6.0 mph /  9.7 km/h 10.0 mph /  16.1 km/h 96 % 0.03 in /  0.76 mm 77 W/m2
10:17 34.3 °F /  1.3 °C 33.3 °F /  0.7 °C 29.20 in /  988.7 hPa NW 6.0 mph /  9.7 km/h 10.0 mph /  16.1 km/h 96 % 0.03 in /  0.76 mm 69 W/m2
10:22 34.3 °F /  1.3 °C 33.3 °F /  0.7 °C 29.21 in /  989.1 hPa NW 7.0 mph /  11.3 km/h 11.0 mph /  17.7 km/h 96 % 0.04 in /  1.02 mm 95 W/m2
10:27 34.3 °F /  1.3 °C 33.3 °F /  0.7 °C 29.21 in /  989.1 hPa NW 5.0 mph /  8 km/h 8.0 mph /  12.9 km/h 96 % 0.03 in /  0.76 mm 118 W/m2
10:32 34.3 °F /  1.3 °C 33.3 °F /  0.7 °C 29.22 in /  989.4 hPa WNW 8.0 mph /  12.9 km/h 13.0 mph /  20.9 km/h 96 % 0.04 in /  1.02 mm 134 W/m2
10:37 34.5 °F /  1.4 °C 33.5 °F /  0.8 °C 29.22 in /  989.4 hPa NW 5.0 mph /  8 km/h 10.0 mph /  16.1 km/h 96 % 0.04 in /  1.02 mm 151 W/m2
10:42 34.7 °F /  1.5 °C 33.7 °F /  0.9 °C 29.22 in /  989.4 hPa WNW 9.0 mph /  14.5 km/h 14.0 mph /  22.5 km/h 96 % 0.04 in /  1.02 mm 160 W/m2
10:47 34.7 °F /  1.5 °C 33.7 °F /  0.9 °C 29.23 in /  989.7 hPa WNW 9.0 mph /  14.5 km/h 13.0 mph /  20.9 km/h 96 % 0.05 in /  1.27 mm 190 W/m2
10:52 34.9 °F /  1.6 °C 33.9 °F /  1.1 °C 29.23 in /  989.7 hPa WNW 7.0 mph /  11.3 km/h 12.0 mph /  19.3 km/h 96 % 0.06 in /  1.52 mm 206 W/m2
10:57 35.1 °F /  1.7 °C 34.0 °F /  1.1 °C 29.23 in /  989.7 hPa WNW 9.0 mph /  14.5 km/h 12.0 mph /  19.3 km/h 96 % 0.05 in /  1.27 mm 123 W/m2
11:02 35.1 °F /  1.7 °C 34.0 °F /  1.1 °C 29.23 in /  989.7 hPa WNW 9.0 mph /  14.5 km/h 13.0 mph /  20.9 km/h 96 % 0.06 in /  1.52 mm 105 W/m2
11:07 35.1 °F /  1.7 °C 34.0 °F /  1.1 °C 29.24 in /  990.1 hPa WNW 8.0 mph /  12.9 km/h 11.0 mph /  17.7 km/h 96 % 0.06 in /  1.52 mm 107 W/m2
11:12 35.1 °F /  1.7 °C 34.0 °F /  1.1 °C 29.24 in /  990.1 hPa WNW 7.0 mph /  11.3 km/h 11.0 mph /  17.7 km/h 96 % 0.06 in /  1.52 mm 118 W/m2
11:17 35.2 °F /  1.8 °C 34.2 °F /  1.2 °C 29.24 in /  990.1 hPa NW 7.0 mph /  11.3 km/h 11.0 mph /  17.7 km/h 96 % 0.06 in /  1.52 mm 165 W/m2
11:22 35.4 °F /  1.9 °C 34.4 °F /  1.3 °C 29.25 in /  990.4 hPa NW 8.0 mph /  12.9 km/h 12.0 mph /  19.3 km/h 96 % 0.06 in /  1.52 mm 434 W/m2
11:27 36.0 °F /  2.2 °C 34.9 °F /  1.6 °C 29.25 in /  990.4 hPa WNW 7.0 mph /  11.3 km/h 12.0 mph /  19.3 km/h 96 % 0.06 in /  1.52 mm 424 W/m2
11:32 36.7 °F /  2.6 °C 35.9 °F /  2.2 °C 29.25 in /  990.4 hPa WNW 8.0 mph /  12.9 km/h 12.0 mph /  19.3 km/h 97 % 0.06 in /  1.52 mm 543 W/m2
11:37 37.6 °F /  3.1 °C 36.8 °F /  2.7 °C 29.25 in /  990.4 hPa WNW 12.0 mph /  19.3 km/h 18.0 mph /  29 km/h 97 % 0.06 in /  1.52 mm 540 W/m2
11:42 38.1 °F /  3.4 °C 37.3 °F /  2.9 °C 29.25 in /  990.4 hPa WNW 9.0 mph /  14.5 km/h 14.0 mph /  22.5 km/h 97 % 0.06 in /  1.52 mm 503 W/m2
11:47 38.7 °F /  3.7 °C 37.6 °F /  3.1 °C 29.25 in /  990.4 hPa WNW 12.0 mph /  19.3 km/h 22.0 mph /  35.4 km/h 96 % 0.06 in /  1.52 mm 316 W/m2
11:52 38.8 °F /  3.8 °C 37.8 °F /  3.2 °C 29.26 in /  990.7 hPa WNW 13.0 mph /  20.9 km/h 23.0 mph /  37 km/h 96 % 0.06 in /  1.52 mm 424 W/m2
11:57 39.2 °F /  4 °C 38.2 °F /  3.4 °C 29.26 in /  990.7 hPa WNW 16.0 mph /  25.7 km/h 25.0 mph /  40.2 km/h 96 % 0.06 in /  1.52 mm 476 W/m2
12:02 39.6 °F /  4.2 °C 38.2 °F /  3.4 °C 29.26 in /  990.7 hPa WNW 13.0 mph /  20.9 km/h 25.0 mph /  40.2 km/h 95 % 0.06 in /  1.52 mm 621 W/m2
12:07 39.9 °F /  4.4 °C 38.6 °F /  3.7 °C 29.27 in /  991.1 hPa WNW 18.0 mph /  29 km/h 27.0 mph /  43.5 km/h 95 % 0.06 in /  1.52 mm 236 W/m2
12:12 39.7 °F /  4.3 °C 37.9 °F /  3.3 °C 29.27 in /  991.1 hPa WNW 14.0 mph /  22.5 km/h 21.0 mph /  33.8 km/h 93 % 0.06 in /  1.52 mm 139 W/m2
12:17 39.4 °F /  4.1 °C 37.2 °F /  2.9 °C 29.28 in /  991.4 hPa WNW 14.0 mph /  22.5 km/h 22.0 mph /  35.4 km/h 92 % 0.06 in /  1.52 mm 163 W/m2
12:22 39.2 °F /  4 °C 37.1 °F /  2.8 °C 29.28 in /  991.4 hPa WNW 14.0 mph /  22.5 km/h 22.0 mph /  35.4 km/h 92 % 0.06 in /  1.52 mm 236 W/m2
12:27 39.2 °F /  4 °C 37.1 °F /  2.8 °C 29.28 in /  991.4 hPa WNW 13.0 mph /  20.9 km/h 20.0 mph /  32.2 km/h 92 % 0.05 in /  1.27 mm 323 W/m2
12:32 39.4 °F /  4.1 °C 37.2 °F /  2.9 °C 29.29 in /  991.8 hPa WNW 12.0 mph /  19.3 km/h 23.0 mph /  37 km/h 92 % 0.04 in /  1.02 mm 127 W/m2
12:37 39.4 °F /  4.1 °C 37.2 °F /  2.9 °C 29.29 in /  991.8 hPa WNW 10.0 mph /  16.1 km/h 18.0 mph /  29 km/h 92 % 0.03 in /  0.76 mm 153 W/m2
12:42 39.4 °F /  4.1 °C 37.2 °F /  2.9 °C 29.29 in /  991.8 hPa WNW 8.0 mph /  12.9 km/h 12.0 mph /  19.3 km/h 92 % 0.03 in /  0.76 mm 452 W/m2
12:47 39.9 °F /  4.4 °C 37.8 °F /  3.2 °C 29.29 in /  991.8 hPa WNW 10.0 mph /  16.1 km/h 14.0 mph /  22.5 km/h 92 % 0.02 in /  0.51 mm 640 W/m2
12:52 40.8 °F /  4.9 °C 38.7 °F /  3.7 °C 29.30 in /  992.1 hPa WNW 9.0 mph /  14.5 km/h 13.0 mph /  20.9 km/h 92 % 0.02 in /  0.51 mm 360 W/m2
12:57 41.5 °F /  5.3 °C 39.1 °F /  3.9 °C 29.30 in /  992.1 hPa WNW 15.0 mph /  24.1 km/h 25.0 mph /  40.2 km/h 91 % 0.02 in /  0.51 mm 279 W/m2
13:02 41.5 °F /  5.3 °C 38.8 °F /  3.8 °C 29.30 in /  992.1 hPa WNW 11.0 mph /  17.7 km/h 20.0 mph /  32.2 km/h 90 % 0.01 in /  0.25 mm 262 W/m2
13:07 41.9 °F /  5.5 °C 38.9 °F /  3.8 °C 29.30 in /  992.1 hPa WNW 10.0 mph /  16.1 km/h 18.0 mph /  29 km/h 89 % 0.01 in /  0.25 mm 744 W/m2
13:12 42.6 °F /  5.9 °C 39.9 °F /  4.4 °C 29.31 in /  992.4 hPa WNW 10.0 mph /  16.1 km/h 18.0 mph /  29 km/h 90 % 0.02 in /  0.51 mm 800 W/m2
13:17 43.3 °F /  6.3 °C 40.3 °F /  4.6 °C 29.31 in /  992.4 hPa WNW 13.0 mph /  20.9 km/h 20.0 mph /  32.2 km/h 89 % 0.01 in /  0.25 mm 684 W/m2
13:22 43.7 °F /  6.5 °C 40.1 °F /  4.5 °C 29.31 in /  992.4 hPa WNW 11.0 mph /  17.7 km/h 19.0 mph /  30.6 km/h 87 % 0.01 in /  0.25 mm 580 W/m2
13:27 44.1 °F /  6.7 °C 40.1 °F /  4.5 °C 29.31 in /  992.4 hPa WNW 12.0 mph /  19.3 km/h 22.0 mph /  35.4 km/h 86 % 0.01 in /  0.25 mm 568 W/m2
13:32 44.2 °F /  6.8 °C 40.0 °F /  4.4 °C 29.31 in /  992.4 hPa WNW 11.0 mph /  17.7 km/h 19.0 mph /  30.6 km/h 85 % 0.01 in /  0.25 mm 550 W/m2
13:37 44.4 °F /  6.9 °C 39.9 °F /  4.4 °C 29.31 in /  992.4 hPa WNW 10.0 mph /  16.1 km/h 16.0 mph /  25.7 km/h 84 % 0.01 in /  0.25 mm 541 W/m2
13:42 44.4 °F /  6.9 °C 39.3 °F /  4.1 °C 29.32 in /  992.8 hPa WNW 13.0 mph /  20.9 km/h 25.0 mph /  40.2 km/h 82 % 0.01 in /  0.25 mm 536 W/m2
13:47 44.4 °F /  6.9 °C 39.0 °F /  3.9 °C 29.32 in /  992.8 hPa WNW 14.0 mph /  22.5 km/h 22.0 mph /  35.4 km/h 81 % 0.01 in /  0.25 mm 529 W/m2
13:52 44.6 °F /  7 °C 38.8 °F /  3.8 °C 29.32 in /  992.8 hPa WNW 17.0 mph /  27.4 km/h 27.0 mph /  43.5 km/h 80 % 0.01 in /  0.25 mm 524 W/m2
13:57 44.4 °F /  6.9 °C 38.3 °F /  3.5 °C 29.32 in /  992.8 hPa WNW 17.0 mph /  27.4 km/h 25.0 mph /  40.2 km/h 79 % 0.01 in /  0.25 mm 517 W/m2
14:02 44.4 °F /  6.9 °C 38.0 °F /  3.3 °C 29.33 in /  993.1 hPa WNW 17.0 mph /  27.4 km/h 25.0 mph /  40.2 km/h 78 % 0.01 in /  0.25 mm 506 W/m2
14:07 44.8 °F /  7.1 °C 38.7 °F /  3.7 °C 29.33 in /  993.1 hPa WNW 12.0 mph /  19.3 km/h 20.0 mph /  32.2 km/h 79 % 0.01 in /  0.25 mm 497 W/m2
14:12 44.8 °F /  7.1 °C 38.7 °F /  3.7 °C 29.33 in /  993.1 hPa WNW 14.0 mph /  22.5 km/h 21.0 mph /  33.8 km/h 79 % 0.00 in /  0 mm 489 W/m2
14:17 45.0 °F /  7.2 °C 38.8 °F /  3.8 °C 29.33 in /  993.1 hPa WNW 13.0 mph /  20.9 km/h 21.0 mph /  33.8 km/h 79 % 0.00 in /  0 mm 483 W/m2
14:22 45.0 °F /  7.2 °C 38.5 °F /  3.6 °C 29.33 in /  993.1 hPa West 14.0 mph /  22.5 km/h 20.0 mph /  32.2 km/h 78 % 0.00 in /  0 mm 473 W/m2
14:27 45.1 °F /  7.3 °C 38.4 °F /  3.6 °C 29.33 in /  993.1 hPa West 15.0 mph /  24.1 km/h 23.0 mph /  37 km/h 77 % 0.00 in /  0 mm 473 W/m2
14:33 45.1 °F /  7.3 °C 38.0 °F /  3.3 °C 29.34 in /  993.5 hPa West 15.0 mph /  24.1 km/h 21.0 mph /  33.8 km/h 76 % 0.00 in /  0 mm 475 W/m2
14:38 45.3 °F /  7.4 °C 38.2 °F /  3.4 °C 29.34 in /  993.5 hPa West 14.0 mph /  22.5 km/h 26.0 mph /  41.8 km/h 76 % 0.00 in /  0 mm 448 W/m2
14:43 45.5 °F /  7.5 °C 37.7 °F /  3.2 °C 29.35 in /  993.8 hPa WNW 15.0 mph /  24.1 km/h 24.0 mph /  38.6 km/h 74 % 0.00 in /  0 mm 436 W/m2
14:48 45.7 °F /  7.6 °C 37.5 °F /  3.1 °C 29.35 in /  993.8 hPa West 12.0 mph /  19.3 km/h 23.0 mph /  37 km/h 73 % 0.00 in /  0 mm 425 W/m2
14:53 45.7 °F /  7.6 °C 37.2 °F /  2.9 °C 29.35 in /  993.8 hPa WNW 16.0 mph /  25.7 km/h 25.0 mph /  40.2 km/h 72 % 0.00 in /  0 mm 432 W/m2
14:58 45.7 °F /  7.6 °C 37.2 °F /  2.9 °C 29.35 in /  993.8 hPa West 12.0 mph /  19.3 km/h 19.0 mph /  30.6 km/h 72 % 0.00 in /  0 mm 411 W/m2
15:03 45.9 °F /  7.7 °C 37.0 °F /  2.8 °C 29.35 in /  993.8 hPa WNW 14.0 mph /  22.5 km/h 22.0 mph /  35.4 km/h 71 % 0.00 in /  0 mm 397 W/m2
15:08 45.9 °F /  7.7 °C 36.3 °F /  2.4 °C 29.35 in /  993.8 hPa West 12.0 mph /  19.3 km/h 19.0 mph /  30.6 km/h 69 % 0.00 in /  0 mm 385 W/m2
15:13 46.0 °F /  7.8 °C 35.7 °F /  2.1 °C 29.36 in /  994.1 hPa West 14.0 mph /  22.5 km/h 23.0 mph /  37 km/h 67 % 0.00 in /  0 mm 376 W/m2
15:18 45.9 °F /  7.7 °C 35.5 °F /  1.9 °C 29.36 in /  994.1 hPa West 13.0 mph /  20.9 km/h 23.0 mph /  37 km/h 67 % 0.00 in /  0 mm 350 W/m2
15:23 45.9 °F /  7.7 °C 35.9 °F /  2.2 °C 29.36 in /  994.1 hPa West 10.0 mph /  16.1 km/h 16.0 mph /  25.7 km/h 68 % 0.00 in /  0 mm 348 W/m2
15:28 45.7 °F /  7.6 °C 35.3 °F /  1.8 °C 29.36 in /  994.1 hPa West 13.0 mph /  20.9 km/h 20.0 mph /  32.2 km/h 67 % 0.00 in /  0 mm 144 W/m2
15:33 45.3 °F /  7.4 °C 35.4 °F /  1.9 °C 29.37 in /  994.5 hPa West 12.0 mph /  19.3 km/h 20.0 mph /  32.2 km/h 68 % 0.00 in /  0 mm 323 W/m2
15:38 45.1 °F /  7.3 °C 34.8 °F /  1.6 °C 29.37 in /  994.5 hPa West 13.0 mph /  20.9 km/h 19.0 mph /  30.6 km/h 67 % 0.00 in /  0 mm 54 W/m2
15:43 44.8 °F /  7.1 °C 35.2 °F /  1.8 °C 29.37 in /  994.5 hPa West 11.0 mph /  17.7 km/h 15.0 mph /  24.1 km/h 69 % 0.00 in /  0 mm 72 W/m2
15:48 44.2 °F /  6.8 °C 35.1 °F /  1.7 °C 29.37 in /  994.5 hPa West 13.0 mph /  20.9 km/h 19.0 mph /  30.6 km/h 70 % 0.00 in /  0 mm 104 W/m2
15:53 44.1 °F /  6.7 °C 35.3 °F /  1.8 °C 29.37 in /  994.5 hPa WNW 11.0 mph /  17.7 km/h 19.0 mph /  30.6 km/h 71 % 0.00 in /  0 mm 109 W/m2
15:58 44.1 °F /  6.7 °C 35.6 °F /  2 °C 29.38 in /  994.8 hPa WNW 10.0 mph /  16.1 km/h 14.0 mph /  22.5 km/h 72 % 0.00 in /  0 mm 134 W/m2
16:03 43.9 °F /  6.6 °C 35.4 °F /  1.9 °C 29.38 in /  994.8 hPa WNW 11.0 mph /  17.7 km/h 16.0 mph /  25.7 km/h 72 % 0.00 in /  0 mm 56 W/m2
16:08 43.9 °F /  6.6 °C 35.8 °F /  2.1 °C 29.38 in /  994.8 hPa West 7.0 mph /  11.3 km/h 12.0 mph /  19.3 km/h 73 % 0.00 in /  0 mm 200 W/m2
16:13 43.7 °F /  6.5 °C 36.0 °F /  2.2 °C 29.38 in /  994.8 hPa WNW 6.0 mph /  9.7 km/h 10.0 mph /  16.1 km/h 74 % 0.00 in /  0 mm 72 W/m2
16:18 43.9 °F /  6.6 °C 36.1 °F /  2.3 °C 29.37 in /  994.5 hPa WNW 6.0 mph /  9.7 km/h 11.0 mph /  17.7 km/h 74 % 0.00 in /  0 mm 216 W/m2
16:23 43.9 °F /  6.6 °C 36.1 °F /  2.3 °C 29.38 in /  994.8 hPa WNW 10.0 mph /  16.1 km/h 15.0 mph /  24.1 km/h 74 % 0.00 in /  0 mm 37 W/m2
16:28 43.9 °F /  6.6 °C 35.8 °F /  2.1 °C 29.38 in /  994.8 hPa WNW 9.0 mph /  14.5 km/h 12.0 mph /  19.3 km/h 73 % 0.00 in /  0 mm 65 W/m2
16:33 43.7 °F /  6.5 °C 35.6 °F /  2 °C 29.38 in /  994.8 hPa West 7.0 mph /  11.3 km/h 11.0 mph /  17.7 km/h 73 % 0.00 in /  0 mm 67 W/m2
16:38 43.7 °F /  6.5 °C 36.0 °F /  2.2 °C 29.38 in /  994.8 hPa West 6.0 mph /  9.7 km/h 10.0 mph /  16.1 km/h 74 % 0.00 in /  0 mm 69 W/m2
16:43 43.7 °F /  6.5 °C 36.0 °F /  2.2 °C 29.38 in /  994.8 hPa West 3.0 mph /  4.8 km/h 6.0 mph /  9.7 km/h 74 % 0.00 in /  0 mm 53 W/m2
16:48 43.7 °F /  6.5 °C 36.0 °F /  2.2 °C 29.38 in /  994.8 hPa West 5.0 mph /  8 km/h 9.0 mph /  14.5 km/h 74 % 0.00 in /  0 mm 35 W/m2
16:53 43.5 °F /  6.4 °C 35.8 °F /  2.1 °C 29.39 in /  995.1 hPa Calm   2.0 mph /  3.2 km/h 74 % 0.00 in /  0 mm 54 W/m2
16:58 43.5 °F /  6.4 °C 35.8 °F /  2.1 °C 29.39 in /  995.1 hPa Calm     74 % 0.00 in /  0 mm 47 W/m2
17:03 43.5 °F /  6.4 °C 35.8 °F /  2.1 °C 29.39 in /  995.1 hPa Calm     74 % 0.00 in /  0 mm 46 W/m2
17:08 43.5 °F /  6.4 °C 36.1 °F /  2.3 °C 29.39 in /  995.1 hPa Calm     75 % 0.00 in /  0 mm 53 W/m2
17:13 43.3 °F /  6.3 °C 36.3 °F /  2.4 °C 29.40 in /  995.5 hPa WNW 1.0 mph /  1.6 km/h 2.0 mph /  3.2 km/h 76 % 0.00 in /  0 mm 42 W/m2
17:18 43.3 °F /  6.3 °C 36.3 °F /  2.4 °C 29.40 in /  995.5 hPa Calm   2.0 mph /  3.2 km/h 76 % 0.00 in /  0 mm 47 W/m2
17:23 43.3 °F /  6.3 °C 36.3 °F /  2.4 °C 29.40 in /  995.5 hPa Calm   2.0 mph /  3.2 km/h 76 % 0.00 in /  0 mm 49 W/m2
17:28 43.3 °F /  6.3 °C 36.3 °F /  2.4 °C 29.40 in /  995.5 hPa Calm   2.0 mph /  3.2 km/h 76 % 0.00 in /  0 mm 26 W/m2
17:33 43.2 °F /  6.2 °C 36.1 °F /  2.3 °C 29.40 in /  995.5 hPa SW 2.0 mph /  3.2 km/h 4.0 mph /  6.4 km/h 76 % 0.00 in /  0 mm 14 W/m2
17:38 43.2 °F /  6.2 °C 36.1 °F /  2.3 °C 29.40 in /  995.5 hPa Calm   1.0 mph /  1.6 km/h 76 % 0.00 in /  0 mm 11 W/m2
17:43 43.2 °F /  6.2 °C 36.1 °F /  2.3 °C 29.40 in /  995.5 hPa SW 1.0 mph /  1.6 km/h 3.0 mph /  4.8 km/h 76 % 0.00 in /  0 mm 5 W/m2
17:48 43.0 °F /  6.1 °C 36.3 °F /  2.4 °C 29.41 in /  995.8 hPa SW 1.0 mph /  1.6 km/h 2.0 mph /  3.2 km/h 77 % 0.00 in /  0 mm 0 W/m2
17:53 43.0 °F /  6.1 °C 36.6 °F /  2.6 °C 29.41 in /  995.8 hPa SW 1.0 mph /  1.6 km/h 3.0 mph /  4.8 km/h 78 % 0.00 in /  0 mm 0 W/m2
17:58 43.2 °F /  6.2 °C 36.4 °F /  2.4 °C 29.41 in /  995.8 hPa SW 3.0 mph /  4.8 km/h 5.0 mph /  8 km/h 77 % 0.00 in /  0 mm 0 W/m2
18:03 43.0 °F /  6.1 °C 36.3 °F /  2.4 °C 29.42 in /  996.2 hPa SW 2.0 mph /  3.2 km/h 5.0 mph /  8 km/h 77 % 0.00 in /  0 mm 0 W/m2
18:08 43.0 °F /  6.1 °C 36.6 °F /  2.6 °C 29.42 in /  996.2 hPa WSW 5.0 mph /  8 km/h 11.0 mph /  17.7 km/h 78 % 0.00 in /  0 mm 0 W/m2
18:13 42.8 °F /  6 °C 36.4 °F /  2.4 °C 29.42 in /  996.2 hPa WSW 5.0 mph /  8 km/h 10.0 mph /  16.1 km/h 78 % 0.00 in /  0 mm 0 W/m2
18:18 42.6 °F /  5.9 °C 36.6 °F /  2.6 °C 29.42 in /  996.2 hPa West 6.0 mph /  9.7 km/h 9.0 mph /  14.5 km/h 79 % 0.00 in /  0 mm 0 W/m2
18:23 42.6 °F /  5.9 °C 36.9 °F /  2.7 °C 29.43 in /  996.5 hPa WSW 5.0 mph /  8 km/h 7.0 mph /  11.3 km/h 80 % 0.00 in /  0 mm 0 W/m2
18:28 42.4 °F /  5.8 °C 37.0 °F /  2.8 °C 29.43 in /  996.5 hPa WSW 6.0 mph /  9.7 km/h 11.0 mph /  17.7 km/h 81 % 0.00 in /  0 mm 0 W/m2
18:33 42.4 °F /  5.8 °C 37.6 °F /  3.1 °C 29.43 in /  996.5 hPa WSW 3.0 mph /  4.8 km/h 6.0 mph /  9.7 km/h 83 % 0.00 in /  0 mm 0 W/m2
18:38 42.1 °F /  5.6 °C 37.6 °F /  3.1 °C 29.43 in /  996.5 hPa WSW 4.0 mph /  6.4 km/h 7.0 mph /  11.3 km/h 84 % 0.00 in /  0 mm 0 W/m2
18:43 41.7 °F /  5.4 °C 37.2 °F /  2.9 °C 29.43 in /  996.5 hPa WSW 2.0 mph /  3.2 km/h 5.0 mph /  8 km/h 84 % 0.00 in /  0 mm 0 W/m2
18:48 41.5 °F /  5.3 °C 37.1 °F /  2.8 °C 29.43 in /  996.5 hPa Calm     84 % 0.00 in /  0 mm 0 W/m2
18:53 41.5 °F /  5.3 °C 37.4 °F /  3 °C 29.44 in /  996.8 hPa Calm   2.0 mph /  3.2 km/h 85 % 0.00 in /  0 mm 0 W/m2
18:58 41.4 °F /  5.2 °C 37.2 °F /  2.9 °C 29.44 in /  996.8 hPa WSW 1.0 mph /  1.6 km/h 2.0 mph /  3.2 km/h 85 % 0.00 in /  0 mm 0 W/m2
19:03 41.2 °F /  5.1 °C 37.3 °F /  2.9 °C 29.44 in /  996.8 hPa WSW 3.0 mph /  4.8 km/h 5.0 mph /  8 km/h 86 % 0.00 in /  0 mm 0 W/m2
19:08 40.8 °F /  4.9 °C 37.0 °F /  2.8 °C 29.45 in /  997.2 hPa West 4.0 mph /  6.4 km/h 6.0 mph /  9.7 km/h 86 % 0.00 in /  0 mm 0 W/m2
19:13 40.6 °F /  4.8 °C 36.8 °F /  2.7 °C 29.45 in /  997.2 hPa West 5.0 mph /  8 km/h 10.0 mph /  16.1 km/h 86 % 0.00 in /  0 mm 0 W/m2
19:18 40.6 °F /  4.8 °C 37.1 °F /  2.8 °C 29.45 in /  997.2 hPa West 2.0 mph /  3.2 km/h 5.0 mph /  8 km/h 87 % 0.00 in /  0 mm 0 W/m2
19:24 40.5 °F /  4.7 °C 36.9 °F /  2.7 °C 29.45 in /  997.2 hPa West 2.0 mph /  3.2 km/h 4.0 mph /  6.4 km/h 87 % 0.00 in /  0 mm 0 W/m2
19:29 40.3 °F /  4.6 °C 36.7 °F /  2.6 °C 29.45 in /  997.2 hPa West 3.0 mph /  4.8 km/h 5.0 mph /  8 km/h 87 % 0.00 in /  0 mm 0 W/m2
19:34 39.9 °F /  4.4 °C 36.4 °F /  2.4 °C 29.46 in /  997.5 hPa West 3.0 mph /  4.8 km/h 5.0 mph /  8 km/h 87 % 0.00 in /  0 mm 0 W/m2
19:39 39.9 °F /  4.4 °C 36.7 °F /  2.6 °C 29.46 in /  997.5 hPa West 3.0 mph /  4.8 km/h 6.0 mph /  9.7 km/h 88 % 0.00 in /  0 mm 0 W/m2
19:44 39.7 °F /  4.3 °C 36.5 °F /  2.5 °C 29.46 in /  997.5 hPa West 4.0 mph /  6.4 km/h 6.0 mph /  9.7 km/h 88 % 0.00 in /  0 mm 0 W/m2
19:49 39.7 °F /  4.3 °C 36.5 °F /  2.5 °C 29.46 in /  997.5 hPa WNW 4.0 mph /  6.4 km/h 6.0 mph /  9.7 km/h 88 % 0.00 in /  0 mm 0 W/m2
19:54 39.6 °F /  4.2 °C 36.3 °F /  2.4 °C 29.46 in /  997.5 hPa WNW 5.0 mph /  8 km/h 6.0 mph /  9.7 km/h 88 % 0.00 in /  0 mm 0 W/m2
19:59 39.6 °F /  4.2 °C 36.3 °F /  2.4 °C 29.47 in /  997.9 hPa West 4.0 mph /  6.4 km/h 5.0 mph /  8 km/h 88 % 0.00 in /  0 mm 0 W/m2
20:04 39.4 °F /  4.1 °C 36.1 °F /  2.3 °C 29.47 in /  997.9 hPa West 5.0 mph /  8 km/h 8.0 mph /  12.9 km/h 88 % 0.00 in /  0 mm 0 W/m2
20:09 39.4 °F /  4.1 °C 36.4 °F /  2.4 °C 29.47 in /  997.9 hPa West 6.0 mph /  9.7 km/h 9.0 mph /  14.5 km/h 89 % 0.00 in /  0 mm 0 W/m2
20:14 39.2 °F /  4 °C 35.9 °F /  2.2 °C 29.47 in /  997.9 hPa West 5.0 mph /  8 km/h 8.0 mph /  12.9 km/h 88 % 0.00 in /  0 mm 0 W/m2
20:19 39.4 °F /  4.1 °C 36.1 °F /  2.3 °C 29.47 in /  997.9 hPa West 6.0 mph /  9.7 km/h 10.0 mph /  16.1 km/h 88 % 0.00 in /  0 mm 0 W/m2
20:24 39.4 °F /  4.1 °C 36.1 °F /  2.3 °C 29.47 in /  997.9 hPa West 3.0 mph /  4.8 km/h 8.0 mph /  12.9 km/h 88 % 0.00 in /  0 mm 0 W/m2
20:29 39.4 °F /  4.1 °C 36.1 °F /  2.3 °C 29.48 in /  998.2 hPa West 4.0 mph /  6.4 km/h 7.0 mph /  11.3 km/h 88 % 0.00 in /  0 mm 0 W/m2
20:34 39.2 °F /  4 °C 35.7 °F /  2.1 °C 29.48 in /  998.2 hPa WNW 3.0 mph /  4.8 km/h 7.0 mph /  11.3 km/h 87 % 0.00 in /  0 mm 0 W/m2
20:39 39.4 °F /  4.1 °C 35.8 °F /  2.1 °C 29.48 in /  998.2 hPa West 4.0 mph /  6.4 km/h 8.0 mph /  12.9 km/h 87 % 0.00 in /  0 mm 0 W/m2
20:44 39.4 °F /  4.1 °C 35.8 °F /  2.1 °C 29.48 in /  998.2 hPa West 4.0 mph /  6.4 km/h 7.0 mph /  11.3 km/h 87 % 0.00 in /  0 mm 0 W/m2
20:49 39.6 °F /  4.2 °C 36.0 °F /  2.2 °C 29.48 in /  998.2 hPa West 4.0 mph /  6.4 km/h 8.0 mph /  12.9 km/h 87 % 0.00 in /  0 mm 0 W/m2
20:54 39.6 °F /  4.2 °C 36.0 °F /  2.2 °C 29.48 in /  998.2 hPa West 6.0 mph /  9.7 km/h 14.0 mph /  22.5 km/h 87 % 0.00 in /  0 mm 0 W/m2
20:59 39.7 °F /  4.3 °C 36.2 °F /  2.3 °C 29.48 in /  998.2 hPa WNW 7.0 mph /  11.3 km/h 13.0 mph /  20.9 km/h 87 % 0.00 in /  0 mm 0 W/m2
21:04 39.7 °F /  4.3 °C 35.9 °F /  2.2 °C 29.48 in /  998.2 hPa WNW 9.0 mph /  14.5 km/h 18.0 mph /  29 km/h 86 % 0.00 in /  0 mm 0 W/m2
21:09 39.9 °F /  4.4 °C 35.8 °F /  2.1 °C 29.49 in /  998.5 hPa West 8.0 mph /  12.9 km/h 14.0 mph /  22.5 km/h 85 % 0.00 in /  0 mm 0 W/m2
21:14 39.9 °F /  4.4 °C 35.5 °F /  1.9 °C 29.49 in /  998.5 hPa West 6.0 mph /  9.7 km/h 10.0 mph /  16.1 km/h 84 % 0.00 in /  0 mm 0 W/m2
21:19 39.9 °F /  4.4 °C 35.2 °F /  1.8 °C 29.49 in /  998.5 hPa West 5.0 mph /  8 km/h 8.0 mph /  12.9 km/h 83 % 0.00 in /  0 mm 0 W/m2
21:20 39.9 °F /  4.4 °C 35.2 °F /  1.8 °C 29.49 in /  998.5 hPa West 6.0 mph /  9.7 km/h 9.0 mph /  14.5 km/h 83 % 0.00 in /  0 mm 0 W/m2
21:25 39.7 °F /  4.3 °C 35.0 °F /  1.7 °C 29.49 in /  998.5 hPa West 4.0 mph /  6.4 km/h 7.0 mph /  11.3 km/h 83 % 0.00 in /  0 mm 0 W/m2
21:30 39.7 °F /  4.3 °C 35.0 °F /  1.7 °C 29.49 in /  998.5 hPa West 6.0 mph /  9.7 km/h 10.0 mph /  16.1 km/h 83 % 0.00 in /  0 mm 0 W/m2
21:35 39.7 °F /  4.3 °C 35.0 °F /  1.7 °C 29.49 in /  998.5 hPa West 7.0 mph /  11.3 km/h 13.0 mph /  20.9 km/h 83 % 0.00 in /  0 mm 0 W/m2
21:40 39.6 °F /  4.2 °C 34.8 °F /  1.6 °C 29.49 in /  998.5 hPa WNW 3.0 mph /  4.8 km/h 8.0 mph /  12.9 km/h 83 % 0.00 in /  0 mm 0 W/m2
21:45 39.6 °F /  4.2 °C 34.8 °F /  1.6 °C 29.50 in /  998.9 hPa West 5.0 mph /  8 km/h 10.0 mph /  16.1 km/h 83 % 0.00 in /  0 mm 0 W/m2
21:50 39.6 °F /  4.2 °C 34.8 °F /  1.6 °C 29.50 in /  998.9 hPa WNW 2.0 mph /  3.2 km/h 6.0 mph /  9.7 km/h 83 % 0.00 in /  0 mm 0 W/m2
21:55 39.6 °F /  4.2 °C 34.8 °F /  1.6 °C 29.50 in /  998.9 hPa WNW 1.0 mph /  1.6 km/h 4.0 mph /  6.4 km/h 83 % 0.00 in /  0 mm 0 W/m2
22:00 39.4 °F /  4.1 °C 34.6 °F /  1.4 °C 29.50 in /  998.9 hPa WNW 2.0 mph /  3.2 km/h 5.0 mph /  8 km/h 83 % 0.00 in /  0 mm 0 W/m2
22:05 39.2 °F /  4 °C 34.5 °F /  1.4 °C 29.50 in /  998.9 hPa West 4.0 mph /  6.4 km/h 8.0 mph /  12.9 km/h 83 % 0.00 in /  0 mm 0 W/m2
22:10 39.2 °F /  4 °C 34.5 °F /  1.4 °C 29.50 in /  998.9 hPa West 4.0 mph /  6.4 km/h 8.0 mph /  12.9 km/h 83 % 0.00 in /  0 mm 0 W/m2
22:15 39.0 °F /  3.9 °C 34.6 °F /  1.4 °C 29.51 in /  999.2 hPa West 10.0 mph /  16.1 km/h 16.0 mph /  25.7 km/h 84 % 0.00 in /  0 mm 0 W/m2
22:21 39.0 °F /  3.9 °C 34.6 °F /  1.4 °C 29.51 in /  999.2 hPa West 7.0 mph /  11.3 km/h 11.0 mph /  17.7 km/h 84 % 0.00 in /  0 mm 0 W/m2
22:26 39.0 °F /  3.9 °C 34.6 °F /  1.4 °C 29.51 in /  999.2 hPa WNW 6.0 mph /  9.7 km/h 10.0 mph /  16.1 km/h 84 % 0.00 in /  0 mm 0 W/m2
22:31 38.8 °F /  3.8 °C 34.4 °F /  1.3 °C 29.51 in /  999.2 hPa WNW 6.0 mph /  9.7 km/h 8.0 mph /  12.9 km/h 84 % 0.00 in /  0 mm 0 W/m2
22:36 38.7 °F /  3.7 °C 34.2 °F /  1.2 °C 29.51 in /  999.2 hPa WNW 5.0 mph /  8 km/h 7.0 mph /  11.3 km/h 84 % 0.00 in /  0 mm 0 W/m2
22:41 38.7 °F /  3.7 °C 34.5 °F /  1.4 °C 29.52 in /  999.5 hPa West 6.0 mph /  9.7 km/h 9.0 mph /  14.5 km/h 85 % 0.00 in /  0 mm 0 W/m2
22:46 38.5 °F /  3.6 °C 34.4 °F /  1.3 °C 29.52 in /  999.5 hPa WNW 6.0 mph /  9.7 km/h 8.0 mph /  12.9 km/h 85 % 0.00 in /  0 mm 0 W/m2
22:51 38.5 °F /  3.6 °C 34.7 °F /  1.5 °C 29.52 in /  999.5 hPa West 6.0 mph /  9.7 km/h 8.0 mph /  12.9 km/h 86 % 0.00 in /  0 mm 0 W/m2
22:56 38.7 °F /  3.7 °C 34.8 °F /  1.6 °C 29.52 in /  999.5 hPa West 5.0 mph /  8 km/h 7.0 mph /  11.3 km/h 86 % 0.00 in /  0 mm 0 W/m2
23:01 38.7 °F /  3.7 °C 34.8 °F /  1.6 °C 29.52 in /  999.5 hPa West 3.0 mph /  4.8 km/h 5.0 mph /  8 km/h 86 % 0.00 in /  0 mm 0 W/m2
23:06 38.7 °F /  3.7 °C 34.8 °F /  1.6 °C 29.52 in /  999.5 hPa West 2.0 mph /  3.2 km/h 6.0 mph /  9.7 km/h 86 % 0.00 in /  0 mm 0 W/m2
23:11 38.7 °F /  3.7 °C 34.8 °F /  1.6 °C 29.52 in /  999.5 hPa WSW 2.0 mph /  3.2 km/h 4.0 mph /  6.4 km/h 86 % 0.00 in /  0 mm 0 W/m2
23:16 38.7 °F /  3.7 °C 34.8 °F /  1.6 °C 29.52 in /  999.5 hPa Calm   1.0 mph /  1.6 km/h 86 % 0.00 in /  0 mm 0 W/m2
23:21 38.7 °F /  3.7 °C 34.8 °F /  1.6 °C 29.52 in /  999.5 hPa Calm     86 % 0.00 in /  0 mm 0 W/m2
23:26 38.7 °F /  3.7 °C 34.8 °F /  1.6 °C 29.53 in /  999.9 hPa WSW 1.0 mph /  1.6 km/h 5.0 mph /  8 km/h 86 % 0.00 in /  0 mm 0 W/m2
23:31 38.7 °F /  3.7 °C 34.8 °F /  1.6 °C 29.53 in /  999.9 hPa WSW 1.0 mph /  1.6 km/h 2.0 mph /  3.2 km/h 86 % 0.00 in /  0 mm 0 W/m2
23:36 38.7 °F /  3.7 °C 34.8 °F /  1.6 °C 29.53 in /  999.9 hPa West 2.0 mph /  3.2 km/h 5.0 mph /  8 km/h 86 % 0.00 in /  0 mm 0 W/m2
23:41 38.8 °F /  3.8 °C 35.3 °F /  1.8 °C 29.53 in /  999.9 hPa WNW 4.0 mph /  6.4 km/h 7.0 mph /  11.3 km/h 87 % 0.00 in /  0 mm 0 W/m2
23:46 38.8 °F /  3.8 °C 35.3 °F /  1.8 °C 29.53 in /  999.9 hPa WNW 4.0 mph /  6.4 km/h 6.0 mph /  9.7 km/h 87 % 0.00 in /  0 mm 0 W/m2
23:51 38.8 °F /  3.8 °C 35.3 °F /  1.8 °C 29.53 in /  999.9 hPa West 2.0 mph /  3.2 km/h 5.0 mph /  8 km/h 87 % 0.00 in /  0 mm 0 W/m2
23:56 38.8 °F /  3.8 °C 35.3 °F /  1.8 °C 29.53 in /  999.9 hPa West 2.0 mph /  3.2 km/h 4.0 mph /  6.4 km/h 87 % 0.00 in /  0 mm 0 W/m2
Delerius-Weather
Compliments of Weather Underground - 2.25 mb

Data updates at regular intervals.